Time;durP1;ratioP1;P1;durP2;ratioP2;P2;SDS_P1;SDS_P2;PMS_P1;PMS_P2;Temp;Humidity;BMP_temperature;BMP_pressure;BME280_temperature;BME280_humidity;BME280_pressure;Samples;Min_cycle;Max_cycle;Signal;HPM_P1;HPM_P2
2023/06/08 00:01:15;;;;;;;;;;;;;;;21.52;71.76;101135.75;4971118;28;20310;-84
2023/06/08 00:03:45;;;;;;;;;;;;;;;21.48;72.00;101124.53;4956155;28;20206;-85
2023/06/08 00:06:25;;;;;;;;;;;;;;;21.15;72.24;101080.16;5004015;28;19961;-84
2023/06/08 00:08:54;;;;;;;;;;;;;;;21.40;72.24;101127.34;5021151;28;19928;-84
2023/06/08 00:11:20;;;;;;;;;;;;;;;21.41;71.68;101129.03;5011071;28;20186;-83
2023/06/08 00:13:47;;;;;;;;;;;;;;;21.39;71.59;101125.69;5020928;28;20016;-83
2023/06/08 00:16:14;;;;;;;;;;;;;;;21.34;71.70;101128.09;5022287;28;19928;-83
2023/06/08 00:18:41;;;;;;;;;;;;;;;21.39;71.12;101131.09;5019230;28;20076;-85
2023/06/08 00:21:08;;;;;;;;;;;;;;;21.44;70.59;101120.53;5023070;28;19968;-83
2023/06/08 00:23:37;;;;;;;;;;;;;;;21.43;70.39;101116.13;5011522;28;19933;-85
2023/06/08 00:26:06;;;;;;;;;;;;;;;21.41;70.04;101126.31;5006837;28;19924;-83
2023/06/08 00:28:35;;;;;;;;;;;;;;;21.35;69.97;101118.97;5015902;28;19925;-83
2023/06/08 00:31:02;;;;;;;;;;;;;;;21.30;70.09;101116.84;5018508;28;19928;-84
2023/06/08 00:33:28;;;;;;;;;;;;;;;21.29;69.81;101119.75;5016678;28;19947;-85
2023/06/08 00:35:55;;;;;;;;;;;;;;;21.27;69.81;101121.81;5017719;28;20194;-80
2023/06/08 00:38:22;;;;;;;;;;;;;;;21.24;69.57;101127.56;4989454;28;20093;-84
2023/06/08 00:40:52;;;;;;;;;;;;;;;21.23;69.46;101113.25;4982431;28;19924;-85
2023/06/08 00:43:19;;;;;;;;;;;;;;;21.28;69.22;101113.50;4964059;28;20010;-83
2023/06/08 00:45:46;;;;;;;;;;;;;;;21.21;69.23;101111.78;5020610;28;19929;-85
2023/06/08 00:48:14;;;;;;;;;;;;;;;21.21;69.29;101115.31;4989587;28;20007;-83
2023/06/08 00:50:43;;;;;;;;;;;;;;;21.16;69.34;101106.94;5020053;28;20244;-83
2023/06/08 00:53:09;;;;;;;;;;;;;;;21.08;69.34;101107.91;5003781;28;19924;-81
2023/06/08 00:55:38;;;;;;;;;;;;;;;21.11;69.10;101106.69;5003922;28;19925;-85
2023/06/08 00:58:13;;;;;;;;;;;;;;;21.07;69.60;101102.75;5021104;28;19944;-83
2023/06/08 01:00:40;;;;;;;;;;;;;;;21.07;68.69;101106.25;4983052;28;19925;-84
2023/06/08 01:03:06;;;;;;;;;;;;;;;21.12;68.23;101108.38;5018665;28;19925;-82
2023/06/08 01:05:33;;;;;;;;;;;;;;;21.10;67.47;101111.28;5009940;28;20173;-82
2023/06/08 01:08:04;;;;;;;;;;;;;;;21.13;67.17;101100.06;5006906;28;19955;-83
2023/06/08 01:10:41;;;;;;;;;;;;;;;21.10;67.17;101105.88;5016452;28;19936;-83
2023/06/08 01:13:40;;;;;;;;;;;;;;;21.16;66.83;101101.56;5007826;28;19931;-84
2023/06/08 01:16:10;;;;;;;;;;;;;;;21.19;66.32;101097.63;4973245;28;20347;-85
2023/06/08 01:18:40;;;;;;;;;;;;;;;21.20;66.18;101100.13;5006961;28;19948;-83
2023/06/08 01:21:25;;;;;;;;;;;;;;;21.16;66.28;101096.16;4998974;28;20201;-82
2023/06/08 01:24:02;;;;;;;;;;;;;;;21.17;66.04;101092.44;5019112;28;19929;-84
2023/06/08 01:26:33;;;;;;;;;;;;;;;21.15;66.17;101090.97;4999007;28;20747;-85
2023/06/08 01:29:05;;;;;;;;;;;;;;;21.13;66.14;101089.28;5006965;28;20019;-83
2023/06/08 01:31:35;;;;;;;;;;;;;;;21.12;66.43;101082.22;4967964;28;19933;-84
2023/06/08 01:34:12;;;;;;;;;;;;;;;21.08;66.51;101078.22;4968109;28;19928;-84
2023/06/08 01:36:48;;;;;;;;;;;;;;;21.05;66.53;101081.31;4994929;28;20016;-83
2023/06/08 01:39:17;;;;;;;;;;;;;;;21.06;66.50;101077.59;4994234;28;19924;-84
2023/06/08 01:41:48;;;;;;;;;;;;;;;21.12;66.95;101078.69;4998071;28;19931;-84
2023/06/08 01:44:17;;;;;;;;;;;;;;;21.11;66.36;101069.72;5017541;28;19925;-84
2023/06/08 01:46:53;;;;;;;;;;;;;;;21.10;66.25;101070.78;5018172;28;20440;-84
2023/06/08 01:49:26;;;;;;;;;;;;;;;21.08;65.99;101064.72;5015188;28;20395;-84
2023/06/08 01:51:57;;;;;;;;;;;;;;;20.79;66.14;101021.72;5016042;28;19931;-84
2023/06/08 01:54:23;;;;;;;;;;;;;;;21.03;66.36;101067.19;5019175;28;20126;-83
2023/06/08 01:56:50;;;;;;;;;;;;;;;21.03;65.85;101063.66;5011791;28;20146;-83
2023/06/08 01:59:24;;;;;;;;;;;;;;;20.71;66.07;101019.97;5013517;28;20279;-83
2023/06/08 02:02:16;;;;;;;;;;;;;;;20.98;66.37;101069.63;4944265;28;2105192;-83
2023/06/08 02:04:44;;;;;;;;;;;;;;;20.94;66.54;101067.50;5022010;28;19990;-84
2023/06/08 02:07:11;;;;;;;;;;;;;;;20.90;66.49;101069.78;5035791;28;20159;-83
2023/06/08 02:09:37;;;;;;;;;;;;;;;20.91;66.50;101068.72;5032492;28;20312;-83
2023/06/08 02:12:08;;;;;;;;;;;;;;;20.86;66.70;101063.09;5015249;28;19935;-82
2023/06/08 02:14:38;;;;;;;;;;;;;;;20.83;66.98;101072.41;5014315;28;19931;-83
2023/06/08 02:17:05;;;;;;;;;;;;;;;20.82;66.81;101069.88;5007890;28;19935;-84
2023/06/08 02:19:32;;;;;;;;;;;;;;;20.85;66.48;101061.41;5012510;28;20217;-83
2023/06/08 02:21:59;;;;;;;;;;;;;;;20.84;66.57;101062.44;5014630;28;19935;-85
2023/06/08 02:24:26;;;;;;;;;;;;;;;20.78;66.59;101063.19;5029792;28;20012;-83
2023/06/08 02:26:54;;;;;;;;;;;;;;;20.82;66.26;101054.53;5017171;28;20036;-83
2023/06/08 02:29:21;;;;;;;;;;;;;;;20.87;65.91;101056.66;5007460;28;20123;-82
2023/06/08 02:31:48;;;;;;;;;;;;;;;20.85;65.81;101053.28;5014637;28;19928;-84
2023/06/08 02:34:17;;;;;;;;;;;;;;;20.86;65.79;101055.00;5025005;28;19935;-84
2023/06/08 02:36:47;;;;;;;;;;;;;;;20.82;66.14;101061.78;5017397;28;20374;-83
2023/06/08 02:39:14;;;;;;;;;;;;;;;20.79;66.06;101051.38;5006314;28;20014;-83
2023/06/08 02:41:41;;;;;;;;;;;;;;;20.81;66.00;101052.03;5008094;28;20461;-82
2023/06/08 02:44:08;;;;;;;;;;;;;;;20.85;65.64;101053.28;4998552;28;19945;-83
2023/06/08 02:46:36;;;;;;;;;;;;;;;20.81;65.79;101057.44;4992659;28;20013;-82
2023/06/08 02:49:03;;;;;;;;;;;;;;;20.75;65.96;101058.19;5001299;28;19982;-83
2023/06/08 02:51:31;;;;;;;;;;;;;;;20.85;65.58;101058.69;5011112;28;20386;-84
2023/06/08 02:53:58;;;;;;;;;;;;;;;20.79;65.86;101056.78;5034046;28;20211;-83
2023/06/08 02:56:25;;;;;;;;;;;;;;;20.73;66.03;101065.63;5015139;28;19975;-83
2023/06/08 02:58:52;;;;;;;;;;;;;;;20.69;65.96;101066.03;5015127;28;19939;-84
2023/06/08 03:01:20;;;;;;;;;;;;;;;20.70;66.20;101067.72;5014764;28;19928;-84
2023/06/08 03:03:48;;;;;;;;;;;;;;;20.69;66.17;101076.81;5022339;28;19924;-81
2023/06/08 03:06:18;;;;;;;;;;;;;;;20.70;66.04;101081.19;5013245;28;20300;-83
2023/06/08 03:08:46;;;;;;;;;;;;;;;20.71;66.46;101076.63;5024271;28;19935;-82
2023/06/08 03:11:13;;;;;;;;;;;;;;;20.67;67.22;101081.56;5038944;28;19928;-83
2023/06/08 03:13:40;;;;;;;;;;;;;;;20.60;67.76;101071.72;5019928;28;20358;-84
2023/06/08 03:16:12;;;;;;;;;;;;;;;20.49;68.21;101075.75;5000648;28;19931;-82
2023/06/08 03:18:39;;;;;;;;;;;;;;;20.46;68.48;101070.72;5034109;28;19931;-81
2023/06/08 03:21:12;;;;;;;;;;;;;;;20.17;68.63;101021.25;5037753;28;19948;-84
2023/06/08 03:23:44;;;;;;;;;;;;;;;20.54;68.33;101073.31;5018102;28;20256;-82
2023/06/08 03:26:14;;;;;;;;;;;;;;;20.51;68.52;101081.78;5012697;28;19929;-84
2023/06/08 03:28:45;;;;;;;;;;;;;;;20.35;69.18;101079.31;5018571;28;20017;-83
2023/06/08 03:31:12;;;;;;;;;;;;;;;20.38;68.76;101087.00;5024648;28;19925;-83
2023/06/08 03:33:39;;;;;;;;;;;;;;;20.11;69.80;101089.38;5022872;28;20033;-82
2023/06/08 03:36:15;;;;;;;;;;;;;;;20.02;70.22;101093.19;5016819;28;20387;-83
2023/06/08 03:38:42;;;;;;;;;;;;;;;19.99;70.72;101096.25;5012789;28;20011;-83
2023/06/08 03:41:08;;;;;;;;;;;;;;;19.96;70.70;101086.69;5016680;28;19925;-82
2023/06/08 03:43:35;;;;;;;;;;;;;;;20.01;70.43;101099.59;5025172;28;20313;-83
2023/06/08 03:46:04;;;;;;;;;;;;;;;19.69;71.01;101047.78;5015719;28;19924;-84
2023/06/08 03:48:31;;;;;;;;;;;;;;;19.95;71.45;101101.19;5040168;28;19978;-83
2023/06/08 03:51:02;;;;;;;;;;;;;;;19.82;71.65;101099.13;5005990;28;19928;-83
2023/06/08 03:53:33;;;;;;;;;;;;;;;19.83;71.87;101097.25;5020743;28;19929;-83
2023/06/08 03:56:00;;;;;;;;;;;;;;;19.83;71.77;101098.13;5025446;28;19925;-84
2023/06/08 03:58:29;;;;;;;;;;;;;;;19.90;71.66;101097.38;5037169;28;20679;-82
2023/06/08 04:00:59;;;;;;;;;;;;;;;19.90;71.74;101097.38;5034379;28;19925;-84
2023/06/08 04:03:30;;;;;;;;;;;;;;;19.82;72.07;101092.91;5037747;28;20576;-84
2023/06/08 04:05:57;;;;;;;;;;;;;;;19.73;72.27;101100.22;5021511;28;20070;-85
2023/06/08 04:08:23;;;;;;;;;;;;;;;19.75;72.40;101095.50;5040855;28;20319;-82
2023/06/08 04:10:50;;;;;;;;;;;;;;;19.80;72.38;101103.84;5021368;28;19955;-84
2023/06/08 04:13:16;;;;;;;;;;;;;;;19.83;72.77;101103.50;5024217;28;19925;-84
2023/06/08 04:15:43;;;;;;;;;;;;;;;19.82;72.73;101101.00;5038470;28;19925;-83
2023/06/08 04:18:11;;;;;;;;;;;;;;;19.81;72.82;101105.53;5034774;28;20313;-84
2023/06/08 04:20:43;;;;;;;;;;;;;;;19.82;72.94;101107.22;5020162;28;19935;-84
2023/06/08 04:23:15;;;;;;;;;;;;;;;19.81;73.21;101100.16;4984608;28;19947;-83
2023/06/08 04:25:42;;;;;;;;;;;;;;;19.88;73.06;101111.03;5036084;28;19936;-83
2023/06/08 04:28:10;;;;;;;;;;;;;;;19.90;72.99;101108.13;5018455;28;19924;-85
2023/06/08 04:30:39;;;;;;;;;;;;;;;19.95;72.79;101105.72;5046710;28;20420;-84
2023/06/08 04:33:07;;;;;;;;;;;;;;;19.97;72.43;101103.69;5043843;28;19955;-84
2023/06/08 04:35:37;;;;;;;;;;;;;;;19.69;72.45;101047.78;5029656;28;20305;-84
2023/06/08 04:38:14;;;;;;;;;;;;;;;20.07;71.91;101101.53;5016189;28;20063;-83
2023/06/08 04:40:49;;;;;;;;;;;;;;;20.12;71.57;101098.28;5017383;28;20015;-85
2023/06/08 04:43:17;;;;;;;;;;;;;;;20.21;70.98;101095.31;5044164;28;19924;-85
2023/06/08 04:45:57;;;;;;;;;;;;;;;20.32;70.16;101106.66;5016844;28;19932;-82
2023/06/08 04:48:27;;;;;;;;;;;;;;;20.39;70.64;101112.94;5009337;28;19955;-84
2023/06/08 04:51:03;;;;;;;;;;;;;;;20.39;70.08;101102.16;5004383;28;20076;-84
2023/06/08 04:53:35;;;;;;;;;;;;;;;20.46;69.09;101100.38;5008397;28;20530;-83
2023/06/08 04:56:09;;;;;;;;;;;;;;;20.53;68.28;101098.59;5021016;28;19982;-85
2023/06/08 04:58:39;;;;;;;;;;;;;;;20.56;67.99;101103.66;5004519;28;20074;-85
2023/06/08 05:01:11;;;;;;;;;;;;;;;20.60;67.47;101099.53;5005096;28;19931;-83
2023/06/08 05:03:37;;;;;;;;;;;;;;;20.66;67.28;101097.97;5019840;28;20259;-83
2023/06/08 05:06:04;;;;;;;;;;;;;;;20.79;67.04;101097.25;5030132;28;20348;-84
2023/06/08 05:08:31;;;;;;;;;;;;;;;20.88;66.35;101098.81;5014889;28;19932;-82
2023/06/08 05:10:58;;;;;;;;;;;;;;;20.95;67.24;101099.72;5027158;28;20367;-82
2023/06/08 05:13:25;;;;;;;;;;;;;;;21.00;66.47;101094.56;4988645;28;19935;-83
2023/06/08 05:15:58;;;;;;;;;;;;;;;21.05;66.82;101094.81;5020964;28;19929;-82
2023/06/08 05:18:25;;;;;;;;;;;;;;;21.09;65.86;101093.41;5004644;28;19960;-84
2023/06/08 05:20:53;;;;;;;;;;;;;;;21.15;64.79;101094.50;5017193;28;20279;-85
2023/06/08 05:23:22;;;;;;;;;;;;;;;20.91;64.33;101053.38;5025233;28;19928;-84
2023/06/08 05:25:50;;;;;;;;;;;;;;;21.21;64.84;101095.56;5026295;28;20469;-85
2023/06/08 05:28:17;;;;;;;;;;;;;;;21.23;65.16;101093.50;5020393;28;19979;-82
2023/06/08 05:30:45;;;;;;;;;;;;;;;21.29;65.27;101088.19;5023843;28;20015;-83
2023/06/08 05:33:13;;;;;;;;;;;;;;;20.69;65.13;100998.59;5025425;28;19951;-85
2023/06/08 05:35:40;;;;;;;;;;;;;;;21.32;65.11;101097.75;5022929;28;20151;-83
2023/06/08 05:38:06;;;;;;;;;;;;;;;21.37;65.42;101089.91;4998545;28;19952;-84
2023/06/08 05:40:33;;;;;;;;;;;;;;;21.47;64.85;101095.81;5005049;28;20279;-83
2023/06/08 05:43:03;;;;;;;;;;;;;;;21.54;63.57;101090.47;5023319;28;19925;-84
2023/06/08 05:45:29;;;;;;;;;;;;;;;21.61;63.47;101094.06;5026184;28;19931;-83
2023/06/08 05:48:06;;;;;;;;;;;;;;;21.68;62.78;101091.41;5033977;28;19931;-85
2023/06/08 05:50:33;;;;;;;;;;;;;;;21.77;62.54;101090.19;5017652;28;19929;-82
2023/06/08 05:53:01;;;;;;;;;;;;;;;21.77;62.23;101090.19;5033176;28;19936;-84
2023/06/08 05:55:28;;;;;;;;;;;;;;;21.77;63.63;101090.19;5018956;28;19968;-85
2023/06/08 05:57:54;;;;;;;;;;;;;;;21.82;62.98;101098.56;4992550;28;20121;-83
2023/06/08 06:00:21;;;;;;;;;;;;;;;21.90;61.76;101093.00;5016810;28;20287;-84
2023/06/08 06:02:48;;;;;;;;;;;;;;;21.91;62.31;101093.81;5018696;28;20256;-81
2023/06/08 06:05:20;;;;;;;;;;;;;;;21.86;62.69;101099.81;4996835;28;20497;-83
2023/06/08 06:08:00;;;;;;;;;;;;;;;21.85;62.88;101098.16;4998039;28;19924;-85
2023/06/08 06:10:36;;;;;;;;;;;;;;;21.88;63.34;101100.47;4993732;28;20555;-83
2023/06/08 06:13:04;;;;;;;;;;;;;;;21.96;61.63;101102.16;5023665;28;20117;-85
2023/06/08 06:15:31;;;;;;;;;;;;;;;22.00;61.70;101103.44;5024510;28;19967;-83
2023/06/08 06:18:00;;;;;;;;;;;;;;;22.04;62.47;101102.03;4998029;28;19950;-85
2023/06/08 06:20:30;;;;;;;;;;;;;;;22.10;61.74;101100.38;5011997;28;19925;-82
2023/06/08 06:22:57;;;;;;;;;;;;;;;22.08;62.00;101107.84;5001797;28;20770;-83
2023/06/08 06:25:24;;;;;;;;;;;;;;;22.19;60.95;101104.59;5024865;28;20218;-83
2023/06/08 06:27:50;;;;;;;;;;;;;;;22.18;60.98;101092.09;5022003;28;19924;-84
2023/06/08 06:30:17;;;;;;;;;;;;;;;22.23;61.49;101094.22;5025756;28;19932;-83
2023/06/08 06:32:46;;;;;;;;;;;;;;;21.93;61.22;101041.25;5005381;28;20029;-85
2023/06/08 06:35:18;;;;;;;;;;;;;;;22.37;60.47;101091.38;5006828;28;19951;-85
2023/06/08 06:37:45;;;;;;;;;;;;;;;22.54;59.06;101096.44;5029470;28;20167;-82
2023/06/08 06:40:12;;;;;;;;;;;;;;;22.45;59.69;101084.94;5036394;28;20366;-83
2023/06/08 06:42:39;;;;;;;;;;;;;;;22.40;59.69;101085.56;5008253;28;19955;-84
2023/06/08 06:45:11;;;;;;;;;;;;;;;22.38;60.24;101087.66;4988859;28;20162;-86
2023/06/08 06:47:43;;;;;;;;;;;;;;;22.06;60.98;101035.03;5028894;28;19928;-84
2023/06/08 06:50:19;;;;;;;;;;;;;;;22.24;60.42;101044.53;5013294;28;20007;-83
2023/06/08 06:52:50;;;;;;;;;;;;;;;22.59;60.29;101089.34;4992012;28;20198;-84
2023/06/08 06:55:20;;;;;;;;;;;;;;;22.57;60.76;101090.59;4994951;28;19937;-84
2023/06/08 06:57:48;;;;;;;;;;;;;;;22.58;60.40;101084.16;5018415;28;20370;-86
2023/06/08 07:00:15;;;;;;;;;;;;;;;22.58;60.35;101084.16;5037229;28;19978;-81
2023/06/08 07:02:42;;;;;;;;;;;;;;;22.63;59.80;101087.09;5014556;28;19932;-83
2023/06/08 07:05:10;;;;;;;;;;;;;;;22.69;59.56;101091.66;4999314;28;19928;-83
2023/06/08 07:07:40;;;;;;;;;;;;;;;22.58;59.25;101044.41;5002255;28;20286;-85
2023/06/08 07:10:07;;;;;;;;;;;;;;;22.87;59.21;101090.28;4989508;28;20015;-81
2023/06/08 07:12:35;;;;;;;;;;;;;;;22.95;59.55;101092.78;5020631;28;19932;-84
2023/06/08 07:15:03;;;;;;;;;;;;;;;23.10;58.53;101095.31;5021908;28;19925;-84
2023/06/08 07:17:33;;;;;;;;;;;;;;;23.14;58.91;101096.59;5013766;28;19925;-84
2023/06/08 07:20:00;;;;;;;;;;;;;;;23.28;58.79;101092.84;4961614;28;19925;-85
2023/06/08 07:22:27;;;;;;;;;;;;;;;23.34;58.58;101091.16;4985295;28;20014;-82
2023/06/08 07:25:17;;;;;;;;;;;;;;;23.42;59.10;101096.34;4984237;28;20251;-84
2023/06/08 07:28:08;;;;;;;;;;;;;;;23.47;59.75;101091.13;5017117;28;19978;-82
2023/06/08 07:30:38;;;;;;;;;;;;;;;23.45;59.71;101093.25;4995092;28;19935;-82
2023/06/08 07:33:06;;;;;;;;;;;;;;;23.42;59.76;101082.81;5019189;28;19928;-85
2023/06/08 07:35:32;;;;;;;;;;;;;;;23.46;59.92;101086.78;5023194;28;20229;-82
2023/06/08 07:37:59;;;;;;;;;;;;;;;23.50;60.15;101079.91;5009063;28;19979;-82
2023/06/08 07:40:26;;;;;;;;;;;;;;;23.56;60.40;101072.81;4996368;28;20280;-84
2023/06/08 07:42:53;;;;;;;;;;;;;;;23.63;59.90;101079.88;5002209;28;19991;-83
2023/06/08 07:45:20;;;;;;;;;;;;;;;23.63;60.33;101074.44;5026627;28;20363;-85
2023/06/08 07:47:47;;;;;;;;;;;;;;;23.69;60.11;101078.22;5003322;28;20405;-83
2023/06/08 07:50:14;;;;;;;;;;;;;;;23.72;60.37;101076.97;5005266;28;20370;-83
2023/06/08 07:52:41;;;;;;;;;;;;;;;23.67;60.90;101081.13;5002228;28;19924;-83
2023/06/08 07:55:12;;;;;;;;;;;;;;;23.81;61.17;101078.41;5017723;28;19956;-83
2023/06/08 07:57:38;;;;;;;;;;;;;;;23.92;60.00;101072.34;5001375;28;19931;-84
2023/06/08 08:00:05;;;;;;;;;;;;;;;24.02;60.71;101077.31;5029530;28;19925;-83
2023/06/08 08:02:33;;;;;;;;;;;;;;;23.94;60.96;101083.81;5004675;28;20414;-85
2023/06/08 08:05:00;;;;;;;;;;;;;;;23.98;59.82;101076.91;4973849;28;19965;-83
2023/06/08 08:07:33;;;;;;;;;;;;;;;23.95;60.99;101076.50;4962673;28;19925;-83
2023/06/08 08:10:03;;;;;;;;;;;;;;;24.09;60.67;101083.53;4960320;28;19932;-83
2023/06/08 08:12:32;;;;;;;;;;;;;;;24.01;61.34;101073.78;4975752;28;19929;-84
2023/06/08 08:15:00;;;;;;;;;;;;;;;24.03;60.77;101085.25;5002865;28;19935;-83
2023/06/08 08:17:27;;;;;;;;;;;;;;;24.13;60.54;101086.66;5004214;28;20023;-83
2023/06/08 08:19:55;;;;;;;;;;;;;;;24.16;60.08;101080.81;5007659;28;19929;-81
2023/06/08 08:22:24;;;;;;;;;;;;;;;24.16;60.93;101080.81;5020771;28;20019;-85
2023/06/08 08:24:51;;;;;;;;;;;;;;;24.16;61.09;101078.09;5017798;28;19933;-84
2023/06/08 08:27:18;;;;;;;;;;;;;;;24.17;61.76;101085.19;5024468;28;19929;-82
2023/06/08 08:29:44;;;;;;;;;;;;;;;24.27;60.80;101080.13;5025879;28;19924;-84
2023/06/08 08:32:11;;;;;;;;;;;;;;;24.34;60.63;101067.38;5015950;28;19931;-82
2023/06/08 08:34:38;;;;;;;;;;;;;;;24.40;60.42;101074.66;4975734;28;20089;-83
2023/06/08 08:37:11;;;;;;;;;;;;;;;24.28;60.52;101028.38;4985663;28;19929;-83
2023/06/08 08:39:37;;;;;;;;;;;;;;;24.56;60.14;101075.22;4994005;28;20421;-83
2023/06/08 08:42:07;;;;;;;;;;;;;;;24.65;58.97;101079.34;5006436;28;19925;-83
2023/06/08 08:44:34;;;;;;;;;;;;;;;24.69;58.80;101088.72;4999756;28;19929;-83
2023/06/08 08:47:04;;;;;;;;;;;;;;;24.78;58.49;101084.69;4993274;28;20020;-83
2023/06/08 08:49:40;;;;;;;;;;;;;;;24.82;59.17;101077.78;4979556;28;20012;-86
2023/06/08 08:52:08;;;;;;;;;;;;;;;25.06;58.72;101083.47;5015029;28;19928;-84
2023/06/08 08:54:38;;;;;;;;;;;;;;;25.10;58.42;101079.25;4994739;28;19925;-85
2023/06/08 08:57:06;;;;;;;;;;;;;;;25.09;59.20;101088.44;4992583;28;19925;-81
2023/06/08 08:59:34;;;;;;;;;;;;;;;25.07;57.21;101085.94;4990863;28;19932;-82
2023/06/08 09:02:03;;;;;;;;;;;;;;;25.08;57.95;101081.38;5017908;28;20220;-85
2023/06/08 09:04:33;;;;;;;;;;;;;;;24.88;57.65;101038.03;4974921;28;20577;-84
2023/06/08 09:07:00;;;;;;;;;;;;;;;25.29;57.29;101086.44;4988120;28;19947;-83
2023/06/08 09:09:27;;;;;;;;;;;;;;;25.37;57.69;101083.44;4973406;28;19964;-84
2023/06/08 09:12:01;;;;;;;;;;;;;;;25.42;57.97;101080.06;5007266;28;20331;-83
2023/06/08 09:14:32;;;;;;;;;;;;;;;25.51;56.80;101075.16;5020912;28;19924;-82
2023/06/08 09:17:01;;;;;;;;;;;;;;;25.58;55.68;101075.91;5011002;28;19925;-83
2023/06/08 09:19:29;;;;;;;;;;;;;;;25.48;56.30;101064.72;5044639;28;20027;-84
2023/06/08 09:21:57;;;;;;;;;;;;;;;25.70;56.98;101065.97;5027233;28;20335;-83
2023/06/08 09:24:24;;;;;;;;;;;;;;;25.57;55.69;101060.66;4995939;28;19924;-82
2023/06/08 09:26:53;;;;;;;;;;;;;;;25.62;55.94;101054.56;5001471;28;19962;-83
2023/06/08 09:29:37;;;;;;;;;;;;;;;25.64;55.58;101038.88;4988514;28;20098;-85
2023/06/08 09:32:04;;;;;;;;;;;;;;;25.94;55.27;101041.69;5002063;28;19931;-83
2023/06/08 09:34:34;;;;;;;;;;;;;;;25.99;55.08;101047.25;5003459;28;19928;-81
2023/06/08 09:37:08;;;;;;;;;;;;;;;26.00;55.23;101038.06;5011835;28;19929;-82
2023/06/08 09:39:42;;;;;;;;;;;;;;;26.00;55.00;101038.06;4981659;28;19925;-82
2023/06/08 09:42:10;;;;;;;;;;;;;;;26.07;53.83;101041.53;5008319;28;19931;-80
2023/06/08 09:44:43;;;;;;;;;;;;;;;26.10;54.23;101030.19;5002393;28;19932;-83
2023/06/08 09:47:21;;;;;;;;;;;;;;;26.23;53.31;101027.28;4986005;28;19925;-83
2023/06/08 09:49:51;;;;;;;;;;;;;;;26.27;53.77;101033.09;5010447;28;19935;-82
2023/06/08 09:52:21;;;;;;;;;;;;;;;26.41;53.34;101036.47;5007417;28;19929;-82
2023/06/08 09:54:48;;;;;;;;;;;;;;;26.42;51.74;101028.06;4996803;28;19933;-82
2023/06/08 09:57:16;;;;;;;;;;;;;;;26.67;51.74;101026.28;5003594;28;19924;-83
2023/06/08 09:59:48;;;;;;;;;;;;;;;26.46;52.10;100984.88;5014258;28;19924;-85
2023/06/08 10:02:22;;;;;;;;;;;;;;;26.85;52.93;101028.94;5023843;28;19928;-82
2023/06/08 10:04:53;;;;;;;;;;;;;;;26.96;50.87;101030.81;5004934;28;20274;-82
2023/06/08 10:07:29;;;;;;;;;;;;;;;26.99;50.72;101027.66;4985954;28;19929;-85
2023/06/08 10:09:59;;;;;;;;;;;;;;;27.15;48.93;101028.84;5022670;28;20016;-83
2023/06/08 10:12:29;;;;;;;;;;;;;;;27.27;50.49;101037.06;5020747;28;19925;-82
2023/06/08 10:14:57;;;;;;;;;;;;;;;27.46;49.77;101027.69;5037916;28;19924;-83
2023/06/08 10:17:27;;;;;;;;;;;;;;;27.37;48.97;101020.94;5041760;28;20337;-84
2023/06/08 10:19:56;;;;;;;;;;;;;;;27.57;48.91;101015.09;5036487;28;19955;-85
2023/06/08 10:22:27;;;;;;;;;;;;;;;27.70;50.07;101014.84;5023084;28;19924;-85
2023/06/08 10:24:57;;;;;;;;;;;;;;;27.84;49.22;101012.72;5028597;28;19982;-83
2023/06/08 10:27:35;;;;;;;;;;;;;;;27.96;49.63;101014.56;5006473;28;20362;-83
2023/06/08 10:30:06;;;;;;;;;;;;;;;27.90;50.44;100973.53;5007018;28;20035;-85
2023/06/08 10:32:38;;;;;;;;;;;;;;;28.29;49.73;101009.22;5041120;28;20011;-83
2023/06/08 10:35:12;;;;;;;;;;;;;;;28.07;48.61;100968.13;4998536;28;20254;-84
2023/06/08 10:37:44;;;;;;;;;;;;;;;28.09;47.89;101004.22;5001605;28;19931;-84
2023/06/08 10:40:11;;;;;;;;;;;;;;;28.12;48.53;101014.63;5016062;28;19925;-83
2023/06/08 10:42:53;;;;;;;;;;;;;;;28.30;47.59;100999.13;5021932;28;20173;-86
2023/06/08 10:45:39;;;;;;;;;;;;;;;28.47;46.74;101000.03;5011715;28;19924;-82
2023/06/08 10:48:09;;;;;;;;;;;;;;;28.59;45.51;100999.94;5023390;28;19967;-80
2023/06/08 10:50:41;;;;;;;;;;;;;;;28.69;44.90;100991.09;5028770;28;19930;-82
2023/06/08 10:53:08;;;;;;;;;;;;;;;28.83;46.49;100986.16;5000292;28;20181;-82
2023/06/08 10:55:37;;;;;;;;;;;;;;;29.14;45.33;100980.09;5006743;28;19932;-82
2023/06/08 10:58:16;;;;;;;;;;;;;;;29.34;45.35;100982.28;5021891;28;19935;-83
2023/06/08 11:00:48;;;;;;;;;;;;;;;29.32;44.46;100978.16;5027192;28;19932;-82
2023/06/08 11:03:16;;;;;;;;;;;;;;;29.36;44.44;100979.31;5014823;28;19933;-82
2023/06/08 11:05:45;;;;;;;;;;;;;;;29.51;45.13;100974.03;5009633;28;19929;-82
2023/06/08 11:08:12;;;;;;;;;;;;;;;29.50;44.61;100966.94;5009865;28;20328;-82
2023/06/08 11:10:40;;;;;;;;;;;;;;;29.27;44.26;100967.16;5006376;28;20096;-82
2023/06/08 11:13:08;;;;;;;;;;;;;;;29.40;43.88;100966.81;5001381;28;20443;-82
2023/06/08 11:15:36;;;;;;;;;;;;;;;29.28;43.77;100955.16;4987165;28;19929;-82
2023/06/08 11:18:07;;;;;;;;;;;;;;;29.35;44.10;100959.34;4993836;28;19972;-83
2023/06/08 11:20:41;;;;;;;;;;;;;;;29.62;43.59;100950.41;4988154;28;20748;-82
2023/06/08 11:23:10;;;;;;;;;;;;;;;29.54;43.03;100946.22;5014220;28;20024;-83
2023/06/08 11:25:38;;;;;;;;;;;;;;;29.40;44.96;100947.66;5014446;28;20399;-81
2023/06/08 11:28:07;;;;;;;;;;;;;;;29.26;44.88;100941.72;5018638;28;19931;-81
2023/06/08 11:30:36;;;;;;;;;;;;;;;29.09;44.70;100940.94;5022835;28;20396;-81
2023/06/08 11:33:05;;;;;;;;;;;;;;;29.07;44.24;100940.34;5018026;28;19925;-84
2023/06/08 11:35:35;;;;;;;;;;;;;;;29.24;43.80;100937.59;5020606;28;19932;-82
2023/06/08 11:38:02;;;;;;;;;;;;;;;29.23;43.95;100938.69;5027814;28;19929;-82
2023/06/08 11:40:43;;;;;;;;;;;;;;;29.36;43.92;100930.09;5023984;28;19929;-82
2023/06/08 11:43:11;;;;;;;;;;;;;;;29.58;43.35;100928.19;5026956;28;19924;-82
2023/06/08 11:45:42;;;;;;;;;;;;;;;29.84;43.04;100920.31;5019454;28;20325;-81
2023/06/08 11:48:11;;;;;;;;;;;;;;;30.13;41.77;100917.31;5023551;28;19925;-82
2023/06/08 11:50:50;;;;;;;;;;;;;;;30.28;40.70;100920.22;5000090;28;20147;-82
2023/06/08 11:53:26;;;;;;;;;;;;;;;30.39;40.56;100921.13;5017941;28;20276;-84
2023/06/08 11:55:56;;;;;;;;;;;;;;;30.40;40.17;100912.66;5027304;28;19931;-83
2023/06/08 11:58:29;;;;;;;;;;;;;;;30.26;39.85;100911.44;5023963;28;20107;-83
2023/06/08 12:01:04;;;;;;;;;;;;;;;30.11;40.80;100906.63;5009445;28;19925;-83
2023/06/08 12:03:33;;;;;;;;;;;;;;;29.63;41.39;100902.78;5013221;28;20016;-83
2023/06/08 12:06:01;;;;;;;;;;;;;;;29.52;41.66;100904.59;5014343;28;19998;-83
2023/06/08 12:08:27;;;;;;;;;;;;;;;29.68;41.87;100899.31;5026216;28;19936;-81
2023/06/08 12:10:54;;;;;;;;;;;;;;;29.49;41.43;100858.63;5018107;28;19952;-84
2023/06/08 12:13:22;;;;;;;;;;;;;;;29.75;41.67;100894.47;5023174;28;19943;-85
2023/06/08 12:15:50;;;;;;;;;;;;;;;29.82;41.32;100900.59;4998808;28;19972;-81
2023/06/08 12:18:18;;;;;;;;;;;;;;;30.07;40.68;100885.50;5007171;28;19925;-81
2023/06/08 12:20:45;;;;;;;;;;;;;;;30.33;40.45;100887.41;5012317;28;20337;-81
2023/06/08 12:23:16;;;;;;;;;;;;;;;30.58;39.64;100886.75;5013035;28;20606;-83
2023/06/08 12:25:43;;;;;;;;;;;;;;;30.90;39.08;100882.34;5008545;28;20015;-83
2023/06/08 12:28:23;;;;;;;;;;;;;;;31.03;38.73;100877.22;5020528;28;19936;-81
2023/06/08 12:30:51;;;;;;;;;;;;;;;31.32;38.56;100873.25;5016815;28;20409;-82
2023/06/08 12:33:19;;;;;;;;;;;;;;;31.53;38.19;100874.97;4990409;28;20448;-81
2023/06/08 12:35:49;;;;;;;;;;;;;;;31.53;38.03;100869.47;5008686;28;20051;-82
2023/06/08 12:38:23;;;;;;;;;;;;;;;31.35;37.90;100873.50;4997820;28;19935;-83
2023/06/08 12:41:02;;;;;;;;;;;;;;;31.47;37.38;100865.09;4985638;28;20383;-82
2023/06/08 12:43:28;;;;;;;;;;;;;;;31.52;37.62;100868.66;5009227;28;20433;-83
2023/06/08 12:45:56;;;;;;;;;;;;;;;31.54;36.85;100865.66;5001714;28;20247;-82
2023/06/08 12:48:28;;;;;;;;;;;;;;;31.80;36.83;100863.81;5003584;28;19925;-83